sensor_id;sensor_type;location;lat;lon;timestamp;temperature;humidity
17415;DHT22;8825;48.086;16.426;2023-02-15T00:00:12;5.80;65.70
17415;DHT22;8825;48.086;16.426;2023-02-15T00:02:40;5.80;65.60
17415;DHT22;8825;48.086;16.426;2023-02-15T00:05:08;5.80;65.80
17415;DHT22;8825;48.086;16.426;2023-02-15T00:07:36;5.80;65.80
17415;DHT22;8825;48.086;16.426;2023-02-15T00:10:04;5.80;65.70
17415;DHT22;8825;48.086;16.426;2023-02-15T00:12:52;5.80;65.80
17415;DHT22;8825;48.086;16.426;2023-02-15T00:15:19;5.80;65.80
17415;DHT22;8825;48.086;16.426;2023-02-15T00:17:47;5.80;65.80
17415;DHT22;8825;48.086;16.426;2023-02-15T00:20:14;5.90;65.80
17415;DHT22;8825;48.086;16.426;2023-02-15T00:22:42;5.90;65.70
17415;DHT22;8825;48.086;16.426;2023-02-15T00:25:09;5.90;65.80
17415;DHT22;8825;48.086;16.426;2023-02-15T00:27:56;5.90;65.70
17415;DHT22;8825;48.086;16.426;2023-02-15T00:30:24;5.90;65.40
17415;DHT22;8825;48.086;16.426;2023-02-15T00:32:51;5.90;65.80
17415;DHT22;8825;48.086;16.426;2023-02-15T00:35:19;5.90;65.70
17415;DHT22;8825;48.086;16.426;2023-02-15T00:37:46;5.90;65.70
17415;DHT22;8825;48.086;16.426;2023-02-15T00:40:14;5.90;65.70
17415;DHT22;8825;48.086;16.426;2023-02-15T00:42:41;5.90;65.80
17415;DHT22;8825;48.086;16.426;2023-02-15T00:47:57;5.90;65.90
17415;DHT22;8825;48.086;16.426;2023-02-15T00:50:25;5.90;65.80
17415;DHT22;8825;48.086;16.426;2023-02-15T00:52:52;5.90;65.70
17415;DHT22;8825;48.086;16.426;2023-02-15T00:55:20;5.90;65.70
17415;DHT22;8825;48.086;16.426;2023-02-15T00:57:47;5.90;65.70
17415;DHT22;8825;48.086;16.426;2023-02-15T01:00:35;5.90;65.70
17415;DHT22;8825;48.086;16.426;2023-02-15T01:03:02;5.90;65.30
17415;DHT22;8825;48.086;16.426;2023-02-15T01:05:31;5.90;65.70
17415;DHT22;8825;48.086;16.426;2023-02-15T01:07:59;5.90;65.80
17415;DHT22;8825;48.086;16.426;2023-02-15T01:10:27;5.90;65.70
17415;DHT22;8825;48.086;16.426;2023-02-15T01:12:55;5.90;65.80
17415;DHT22;8825;48.086;16.426;2023-02-15T01:15:24;5.90;65.70
17415;DHT22;8825;48.086;16.426;2023-02-15T01:17:51;5.90;65.60
17415;DHT22;8825;48.086;16.426;2023-02-15T01:20:26;5.90;65.70
17415;DHT22;8825;48.086;16.426;2023-02-15T01:22:54;5.90;65.50
17415;DHT22;8825;48.086;16.426;2023-02-15T01:25:23;5.90;65.50
17415;DHT22;8825;48.086;16.426;2023-02-15T01:27:51;5.90;65.40
17415;DHT22;8825;48.086;16.426;2023-02-15T01:30:19;5.90;65.50
17415;DHT22;8825;48.086;16.426;2023-02-15T01:32:46;5.90;65.40
17415;DHT22;8825;48.086;16.426;2023-02-15T01:35:14;5.90;65.40
17415;DHT22;8825;48.086;16.426;2023-02-15T01:37:41;5.90;65.40
17415;DHT22;8825;48.086;16.426;2023-02-15T01:40:17;5.80;65.40
17415;DHT22;8825;48.086;16.426;2023-02-15T01:42:40;5.80;65.40
17415;DHT22;8825;48.086;16.426;2023-02-15T01:47:47;5.80;65.40
17415;DHT22;8825;48.086;16.426;2023-02-15T01:53:02;5.70;66.10
17415;DHT22;8825;48.086;16.426;2023-02-15T01:55:39;5.70;65.50
17415;DHT22;8825;48.086;16.426;2023-02-15T01:58:07;5.70;65.50
17415;DHT22;8825;48.086;16.426;2023-02-15T02:00:34;5.70;65.50
17415;DHT22;8825;48.086;16.426;2023-02-15T02:03:03;5.70;65.50
17415;DHT22;8825;48.086;16.426;2023-02-15T02:05:32;5.70;65.50
17415;DHT22;8825;48.086;16.426;2023-02-15T02:08:01;5.80;65.60
17415;DHT22;8825;48.086;16.426;2023-02-15T02:10:29;5.80;65.70
17415;DHT22;8825;48.086;16.426;2023-02-15T02:12:59;5.70;65.50
17415;DHT22;8825;48.086;16.426;2023-02-15T02:15:33;5.70;65.60
17415;DHT22;8825;48.086;16.426;2023-02-15T02:18:12;5.80;65.70
17415;DHT22;8825;48.086;16.426;2023-02-15T02:34:43;5.70;65.70
17415;DHT22;8825;48.086;16.426;2023-02-15T02:37:59;5.70;65.60
17415;DHT22;8825;48.086;16.426;2023-02-15T02:42:54;5.70;65.60
17415;DHT22;8825;48.086;16.426;2023-02-15T02:45:32;5.80;65.70
17415;DHT22;8825;48.086;16.426;2023-02-15T02:48:08;5.70;65.70
17415;DHT22;8825;48.086;16.426;2023-02-15T02:50:35;5.70;65.60
17415;DHT22;8825;48.086;16.426;2023-02-15T02:53:02;5.70;65.70
17415;DHT22;8825;48.086;16.426;2023-02-15T02:58:21;5.80;65.60
17415;DHT22;8825;48.086;16.426;2023-02-15T03:00:52;5.80;65.40
17415;DHT22;8825;48.086;16.426;2023-02-15T03:03:31;5.70;65.40
17415;DHT22;8825;48.086;16.426;2023-02-15T03:06:02;5.80;65.40
17415;DHT22;8825;48.086;16.426;2023-02-15T03:08:36;5.70;65.40
17415;DHT22;8825;48.086;16.426;2023-02-15T03:11:03;5.80;65.50
17415;DHT22;8825;48.086;16.426;2023-02-15T03:13:32;5.70;65.50
17415;DHT22;8825;48.086;16.426;2023-02-15T03:16:01;5.80;65.60
17415;DHT22;8825;48.086;16.426;2023-02-15T03:18:54;5.80;65.40
17415;DHT22;8825;48.086;16.426;2023-02-15T03:21:30;5.70;65.40
17415;DHT22;8825;48.086;16.426;2023-02-15T03:23:57;5.70;65.50
17415;DHT22;8825;48.086;16.426;2023-02-15T03:26:24;5.70;65.60
17415;DHT22;8825;48.086;16.426;2023-02-15T03:28:55;5.80;65.60
17415;DHT22;8825;48.086;16.426;2023-02-15T03:31:25;5.80;65.40
17415;DHT22;8825;48.086;16.426;2023-02-15T03:33:57;5.80;65.40
17415;DHT22;8825;48.086;16.426;2023-02-15T03:39:20;5.70;65.40
17415;DHT22;8825;48.086;16.426;2023-02-15T03:41:46;5.80;65.50
17415;DHT22;8825;48.086;16.426;2023-02-15T03:44:18;5.80;65.40
17415;DHT22;8825;48.086;16.426;2023-02-15T03:46:52;5.80;65.50
17415;DHT22;8825;48.086;16.426;2023-02-15T03:52:10;5.70;65.40
17415;DHT22;8825;48.086;16.426;2023-02-15T03:54:39;5.70;65.30
17415;DHT22;8825;48.086;16.426;2023-02-15T04:00:19;5.60;65.20
17415;DHT22;8825;48.086;16.426;2023-02-15T04:03:26;5.60;65.30
17415;DHT22;8825;48.086;16.426;2023-02-15T04:05:52;5.60;65.50
17415;DHT22;8825;48.086;16.426;2023-02-15T04:08:20;5.60;65.60
17415;DHT22;8825;48.086;16.426;2023-02-15T04:10:49;5.60;65.80
17415;DHT22;8825;48.086;16.426;2023-02-15T04:13:21;5.60;65.60
17415;DHT22;8825;48.086;16.426;2023-02-15T04:15:49;5.60;65.50
17415;DHT22;8825;48.086;16.426;2023-02-15T04:18:39;5.60;65.50
17415;DHT22;8825;48.086;16.426;2023-02-15T04:21:27;5.60;65.60
17415;DHT22;8825;48.086;16.426;2023-02-15T04:24:13;5.60;65.60
17415;DHT22;8825;48.086;16.426;2023-02-15T04:27:00;5.60;65.60
17415;DHT22;8825;48.086;16.426;2023-02-15T04:29:29;5.60;65.60
17415;DHT22;8825;48.086;16.426;2023-02-15T04:31:59;5.50;65.50
17415;DHT22;8825;48.086;16.426;2023-02-15T04:34:26;5.50;65.60
17415;DHT22;8825;48.086;16.426;2023-02-15T04:36:54;5.50;65.80
17415;DHT22;8825;48.086;16.426;2023-02-15T04:39:22;5.50;65.80
17415;DHT22;8825;48.086;16.426;2023-02-15T04:41:49;5.60;65.80
17415;DHT22;8825;48.086;16.426;2023-02-15T04:44:17;5.60;65.70
17415;DHT22;8825;48.086;16.426;2023-02-15T04:46:44;5.70;65.90
17415;DHT22;8825;48.086;16.426;2023-02-15T04:49:31;5.70;65.90
17415;DHT22;8825;48.086;16.426;2023-02-15T04:51:58;5.70;65.40
17415;DHT22;8825;48.086;16.426;2023-02-15T04:54:26;5.80;65.70
17415;DHT22;8825;48.086;16.426;2023-02-15T04:56:53;5.80;65.60
17415;DHT22;8825;48.086;16.426;2023-02-15T04:59:21;5.90;65.60
17415;DHT22;8825;48.086;16.426;2023-02-15T05:01:48;5.90;65.60
17415;DHT22;8825;48.086;16.426;2023-02-15T05:04:16;5.90;65.40
17415;DHT22;8825;48.086;16.426;2023-02-15T05:06:44;5.90;65.20
17415;DHT22;8825;48.086;16.426;2023-02-15T05:09:12;5.80;64.90
17415;DHT22;8825;48.086;16.426;2023-02-15T05:11:39;5.80;65.10
17415;DHT22;8825;48.086;16.426;2023-02-15T05:14:07;5.80;65.20
17415;DHT22;8825;48.086;16.426;2023-02-15T05:16:53;5.80;65.10
17415;DHT22;8825;48.086;16.426;2023-02-15T05:19:21;5.90;64.80
17415;DHT22;8825;48.086;16.426;2023-02-15T05:21:50;5.90;65.40
17415;DHT22;8825;48.086;16.426;2023-02-15T05:24:37;6.00;65.10
17415;DHT22;8825;48.086;16.426;2023-02-15T05:27:22;6.00;64.80
17415;DHT22;8825;48.086;16.426;2023-02-15T05:30:09;6.00;65.10
17415;DHT22;8825;48.086;16.426;2023-02-15T05:32:38;6.00;64.70
17415;DHT22;8825;48.086;16.426;2023-02-15T05:35:07;6.00;64.70
17415;DHT22;8825;48.086;16.426;2023-02-15T05:37:34;6.00;64.50
17415;DHT22;8825;48.086;16.426;2023-02-15T05:40:02;6.00;64.50
17415;DHT22;8825;48.086;16.426;2023-02-15T05:42:29;6.00;64.40
17415;DHT22;8825;48.086;16.426;2023-02-15T05:44:57;6.10;64.50
17415;DHT22;8825;48.086;16.426;2023-02-15T05:47:24;6.10;64.50
17415;DHT22;8825;48.086;16.426;2023-02-15T05:49:52;6.10;64.60
17415;DHT22;8825;48.086;16.426;2023-02-15T05:52:19;6.10;64.70
17415;DHT22;8825;48.086;16.426;2023-02-15T05:54:47;6.20;64.60
17415;DHT22;8825;48.086;16.426;2023-02-15T05:57:14;6.20;64.50
17415;DHT22;8825;48.086;16.426;2023-02-15T05:59:42;6.20;64.60
17415;DHT22;8825;48.086;16.426;2023-02-15T06:02:10;6.20;64.60
17415;DHT22;8825;48.086;16.426;2023-02-15T06:04:37;6.20;64.50
17415;DHT22;8825;48.086;16.426;2023-02-15T06:07:05;6.20;65.20
17415;DHT22;8825;48.086;16.426;2023-02-15T06:09:32;6.20;64.40
17415;DHT22;8825;48.086;16.426;2023-02-15T06:12:00;6.20;64.30
17415;DHT22;8825;48.086;16.426;2023-02-15T06:14:28;6.10;64.20
17415;DHT22;8825;48.086;16.426;2023-02-15T06:16:55;6.10;64.40
17415;DHT22;8825;48.086;16.426;2023-02-15T06:19:23;6.20;64.30
17415;DHT22;8825;48.086;16.426;2023-02-15T06:21:50;6.20;64.30
17415;DHT22;8825;48.086;16.426;2023-02-15T06:24:18;6.10;64.20
17415;DHT22;8825;48.086;16.426;2023-02-15T06:26:45;6.20;64.30
17415;DHT22;8825;48.086;16.426;2023-02-15T06:29:13;6.20;64.30
17415;DHT22;8825;48.086;16.426;2023-02-15T06:31:41;6.20;64.20
17415;DHT22;8825;48.086;16.426;2023-02-15T06:34:09;6.20;64.20
17415;DHT22;8825;48.086;16.426;2023-02-15T06:36:36;6.20;64.30
17415;DHT22;8825;48.086;16.426;2023-02-15T06:39:23;6.20;64.30
17415;DHT22;8825;48.086;16.426;2023-02-15T06:41:50;6.30;63.70
17415;DHT22;8825;48.086;16.426;2023-02-15T06:44:18;6.30;64.10
17415;DHT22;8825;48.086;16.426;2023-02-15T06:46:45;6.30;63.90
17415;DHT22;8825;48.086;16.426;2023-02-15T06:49:13;6.30;63.80
17415;DHT22;8825;48.086;16.426;2023-02-15T06:51:40;6.30;63.80
17415;DHT22;8825;48.086;16.426;2023-02-15T06:54:08;6.30;63.70
17415;DHT22;8825;48.086;16.426;2023-02-15T06:56:36;6.30;63.70
17415;DHT22;8825;48.086;16.426;2023-02-15T06:59:03;6.30;63.80
17415;DHT22;8825;48.086;16.426;2023-02-15T07:01:31;6.30;63.90
17415;DHT22;8825;48.086;16.426;2023-02-15T07:03:58;6.30;63.80
17415;DHT22;8825;48.086;16.426;2023-02-15T07:06:26;6.30;63.80
17415;DHT22;8825;48.086;16.426;2023-02-15T07:08:53;6.30;63.70
17415;DHT22;8825;48.086;16.426;2023-02-15T07:11:21;6.30;63.70
17415;DHT22;8825;48.086;16.426;2023-02-15T07:14:06;6.30;64.30
17415;DHT22;8825;48.086;16.426;2023-02-15T07:16:34;6.30;63.50
17415;DHT22;8825;48.086;16.426;2023-02-15T07:19:01;6.40;63.40
17415;DHT22;8825;48.086;16.426;2023-02-15T07:21:29;6.40;63.30
17415;DHT22;8825;48.086;16.426;2023-02-15T07:23:57;6.40;63.10
17415;DHT22;8825;48.086;16.426;2023-02-15T07:26:25;6.40;63.30
17415;DHT22;8825;48.086;16.426;2023-02-15T07:28:53;6.40;63.30
17415;DHT22;8825;48.086;16.426;2023-02-15T07:31:21;6.40;63.20
17415;DHT22;8825;48.086;16.426;2023-02-15T07:33:48;6.40;63.30
17415;DHT22;8825;48.086;16.426;2023-02-15T07:36:16;6.40;63.30
17415;DHT22;8825;48.086;16.426;2023-02-15T07:38:43;6.40;63.40
17415;DHT22;8825;48.086;16.426;2023-02-15T07:41:13;6.40;63.60
17415;DHT22;8825;48.086;16.426;2023-02-15T07:43:43;6.40;63.50
17415;DHT22;8825;48.086;16.426;2023-02-15T07:46:13;6.40;63.50
17415;DHT22;8825;48.086;16.426;2023-02-15T07:48:42;6.50;63.60
17415;DHT22;8825;48.086;16.426;2023-02-15T07:51:11;6.50;63.60
17415;DHT22;8825;48.086;16.426;2023-02-15T07:53:39;6.50;63.50
17415;DHT22;8825;48.086;16.426;2023-02-15T07:56:10;6.50;63.30
17415;DHT22;8825;48.086;16.426;2023-02-15T07:58:38;6.50;63.30
17415;DHT22;8825;48.086;16.426;2023-02-15T08:01:25;6.50;63.30
17415;DHT22;8825;48.086;16.426;2023-02-15T08:03:54;6.50;63.20
17415;DHT22;8825;48.086;16.426;2023-02-15T08:06:24;6.50;63.20
17415;DHT22;8825;48.086;16.426;2023-02-15T08:08:52;6.50;63.10
17415;DHT22;8825;48.086;16.426;2023-02-15T08:11:31;6.50;62.90
17415;DHT22;8825;48.086;16.426;2023-02-15T08:14:17;6.50;62.80
17415;DHT22;8825;48.086;16.426;2023-02-15T08:16:49;6.50;62.70
17415;DHT22;8825;48.086;16.426;2023-02-15T08:19:23;6.50;62.80
17415;DHT22;8825;48.086;16.426;2023-02-15T08:21:55;6.60;62.80
17415;DHT22;8825;48.086;16.426;2023-02-15T08:24:26;6.60;62.80
17415;DHT22;8825;48.086;16.426;2023-02-15T08:26:54;6.60;62.80
17415;DHT22;8825;48.086;16.426;2023-02-15T08:29:25;6.60;62.80
17415;DHT22;8825;48.086;16.426;2023-02-15T08:31:54;6.60;63.10
17415;DHT22;8825;48.086;16.426;2023-02-15T08:34:24;6.60;63.00
17415;DHT22;8825;48.086;16.426;2023-02-15T08:36:51;6.60;63.00
17415;DHT22;8825;48.086;16.426;2023-02-15T08:39:19;6.60;62.90
17415;DHT22;8825;48.086;16.426;2023-02-15T08:41:47;6.70;63.00
17415;DHT22;8825;48.086;16.426;2023-02-15T08:44:17;6.70;62.90
17415;DHT22;8825;48.086;16.426;2023-02-15T08:46:46;6.70;62.80
17415;DHT22;8825;48.086;16.426;2023-02-15T08:49:21;6.70;63.00
17415;DHT22;8825;48.086;16.426;2023-02-15T08:51:45;6.70;62.80
17415;DHT22;8825;48.086;16.426;2023-02-15T08:54:16;6.70;62.90
17415;DHT22;8825;48.086;16.426;2023-02-15T08:56:44;6.80;62.90
17415;DHT22;8825;48.086;16.426;2023-02-15T08:59:15;6.70;62.60
17415;DHT22;8825;48.086;16.426;2023-02-15T09:01:44;6.70;62.70
17415;DHT22;8825;48.086;16.426;2023-02-15T09:04:31;6.70;62.90
17415;DHT22;8825;48.086;16.426;2023-02-15T09:06:58;6.70;62.40
17415;DHT22;8825;48.086;16.426;2023-02-15T09:09:26;6.80;62.70
17415;DHT22;8825;48.086;16.426;2023-02-15T09:11:54;6.70;62.60
17415;DHT22;8825;48.086;16.426;2023-02-15T09:14:21;6.70;62.50
17415;DHT22;8825;48.086;16.426;2023-02-15T09:16:52;6.70;62.20
17415;DHT22;8825;48.086;16.426;2023-02-15T09:19:22;6.70;62.30
17415;DHT22;8825;48.086;16.426;2023-02-15T09:21:50;6.70;62.40
17415;DHT22;8825;48.086;16.426;2023-02-15T09:27:06;6.90;62.40
17415;DHT22;8825;48.086;16.426;2023-02-15T09:29:33;6.90;62.30
17415;DHT22;8825;48.086;16.426;2023-02-15T09:32:01;6.90;62.10
17415;DHT22;8825;48.086;16.426;2023-02-15T09:34:28;6.90;62.10
17415;DHT22;8825;48.086;16.426;2023-02-15T09:36:57;6.80;62.20
17415;DHT22;8825;48.086;16.426;2023-02-15T09:39:25;6.80;62.10
17415;DHT22;8825;48.086;16.426;2023-02-15T09:42:16;6.80;62.30
17415;DHT22;8825;48.086;16.426;2023-02-15T09:47:47;6.80;62.50
17415;DHT22;8825;48.086;16.426;2023-02-15T09:53:13;6.80;62.80
17415;DHT22;8825;48.086;16.426;2023-02-15T10:07:04;7.00;63.10
17415;DHT22;8825;48.086;16.426;2023-02-15T10:18:33;7.10;62.90
17415;DHT22;8825;48.086;16.426;2023-02-15T10:21:30;7.20;62.90
17415;DHT22;8825;48.086;16.426;2023-02-15T10:26:47;7.20;62.30
17415;DHT22;8825;48.086;16.426;2023-02-15T10:29:21;7.30;63.00
17415;DHT22;8825;48.086;16.426;2023-02-15T10:31:51;7.30;62.50
17415;DHT22;8825;48.086;16.426;2023-02-15T10:34:39;7.40;62.50
17415;DHT22;8825;48.086;16.426;2023-02-15T10:40:14;7.10;62.40
17415;DHT22;8825;48.086;16.426;2023-02-15T10:48:51;6.60;63.70
17415;DHT22;8825;48.086;16.426;2023-02-15T10:51:27;6.70;63.30
17415;DHT22;8825;48.086;16.426;2023-02-15T10:57:22;6.90;63.90
17415;DHT22;8825;48.086;16.426;2023-02-15T11:08:19;7.20;63.60
17415;DHT22;8825;48.086;16.426;2023-02-15T11:11:01;7.30;63.00
17415;DHT22;8825;48.086;16.426;2023-02-15T11:13:34;7.40;62.90
17415;DHT22;8825;48.086;16.426;2023-02-15T11:16:14;7.50;62.90
17415;DHT22;8825;48.086;16.426;2023-02-15T11:19:01;7.60;62.60
17415;DHT22;8825;48.086;16.426;2023-02-15T11:21:36;7.70;62.50
17415;DHT22;8825;48.086;16.426;2023-02-15T11:24:00;7.70;62.20
17415;DHT22;8825;48.086;16.426;2023-02-15T11:37:53;7.60;61.90
17415;DHT22;8825;48.086;16.426;2023-02-15T11:40:27;7.60;61.70
17415;DHT22;8825;48.086;16.426;2023-02-15T11:42:58;7.70;61.70
17415;DHT22;8825;48.086;16.426;2023-02-15T11:45:32;7.80;61.90
17415;DHT22;8825;48.086;16.426;2023-02-15T11:48:01;7.70;60.80
17415;DHT22;8825;48.086;16.426;2023-02-15T11:50:32;7.60;61.20
17415;DHT22;8825;48.086;16.426;2023-02-15T11:53:20;7.40;61.20
17415;DHT22;8825;48.086;16.426;2023-02-15T11:55:55;7.40;61.20
17415;DHT22;8825;48.086;16.426;2023-02-15T11:58:33;7.40;61.50
17415;DHT22;8825;48.086;16.426;2023-02-15T12:01:11;7.50;61.60
17415;DHT22;8825;48.086;16.426;2023-02-15T12:03:47;7.60;61.80
17415;DHT22;8825;48.086;16.426;2023-02-15T12:06:41;7.70;61.90
17415;DHT22;8825;48.086;16.426;2023-02-15T12:11:46;7.80;61.50
17415;DHT22;8825;48.086;16.426;2023-02-15T12:14:14;7.90;61.20
17415;DHT22;8825;48.086;16.426;2023-02-15T12:19:37;8.20;61.00
17415;DHT22;8825;48.086;16.426;2023-02-15T12:22:27;8.30;60.80
17415;DHT22;8825;48.086;16.426;2023-02-15T12:27:59;8.50;59.90
17415;DHT22;8825;48.086;16.426;2023-02-15T12:30:32;8.60;59.80
17415;DHT22;8825;48.086;16.426;2023-02-15T12:33:26;8.70;59.70
17415;DHT22;8825;48.086;16.426;2023-02-15T12:35:46;8.80;59.50
17415;DHT22;8825;48.086;16.426;2023-02-15T12:41:01;9.10;59.00
17415;DHT22;8825;48.086;16.426;2023-02-15T12:46:25;9.10;58.60
17415;DHT22;8825;48.086;16.426;2023-02-15T12:54:43;9.30;57.70
17415;DHT22;8825;48.086;16.426;2023-02-15T12:57:23;9.20;57.40
17415;DHT22;8825;48.086;16.426;2023-02-15T13:00:04;9.20;57.70
17415;DHT22;8825;48.086;16.426;2023-02-15T13:02:46;9.10;57.20
17415;DHT22;8825;48.086;16.426;2023-02-15T13:05:32;9.00;57.30
17415;DHT22;8825;48.086;16.426;2023-02-15T13:11:03;9.00;57.50
17415;DHT22;8825;48.086;16.426;2023-02-15T13:13:36;9.00;57.60
17415;DHT22;8825;48.086;16.426;2023-02-15T13:16:12;9.10;57.70
17415;DHT22;8825;48.086;16.426;2023-02-15T13:18:46;9.10;57.50
17415;DHT22;8825;48.086;16.426;2023-02-15T13:23:55;9.20;57.60
17415;DHT22;8825;48.086;16.426;2023-02-15T13:26:20;9.40;57.50
17415;DHT22;8825;48.086;16.426;2023-02-15T13:28:51;9.40;57.20
17415;DHT22;8825;48.086;16.426;2023-02-15T13:31:21;9.50;57.00
17415;DHT22;8825;48.086;16.426;2023-02-15T13:33:55;9.50;57.10
17415;DHT22;8825;48.086;16.426;2023-02-15T13:36:31;9.60;56.90
17415;DHT22;8825;48.086;16.426;2023-02-15T13:39:09;9.50;56.80
17415;DHT22;8825;48.086;16.426;2023-02-15T13:47:03;9.70;56.90
17415;DHT22;8825;48.086;16.426;2023-02-15T13:52:29;9.80;56.70
17415;DHT22;8825;48.086;16.426;2023-02-15T13:55:26;9.80;56.40
17415;DHT22;8825;48.086;16.426;2023-02-15T14:00:52;9.80;56.60
17415;DHT22;8825;48.086;16.426;2023-02-15T14:06:41;9.80;56.60
17415;DHT22;8825;48.086;16.426;2023-02-15T14:09:23;9.90;56.60
17415;DHT22;8825;48.086;16.426;2023-02-15T14:12:18;9.80;56.60
17415;DHT22;8825;48.086;16.426;2023-02-15T14:17:28;9.90;56.80
17415;DHT22;8825;48.086;16.426;2023-02-15T14:20:39;9.70;56.40
17415;DHT22;8825;48.086;16.426;2023-02-15T14:23:26;9.60;56.50
17415;DHT22;8825;48.086;16.426;2023-02-15T14:25:53;9.40;56.60
17415;DHT22;8825;48.086;16.426;2023-02-15T14:28:31;9.40;57.10
17415;DHT22;8825;48.086;16.426;2023-02-15T14:31:16;9.40;57.20
17415;DHT22;8825;48.086;16.426;2023-02-15T14:33:56;9.40;56.90
17415;DHT22;8825;48.086;16.426;2023-02-15T14:36:20;9.40;57.30
17415;DHT22;8825;48.086;16.426;2023-02-15T14:39:06;9.40;57.30
17415;DHT22;8825;48.086;16.426;2023-02-15T14:41:49;9.50;57.50
17415;DHT22;8825;48.086;16.426;2023-02-15T14:44:38;9.40;57.50
17415;DHT22;8825;48.086;16.426;2023-02-15T14:47:29;9.40;57.50
17415;DHT22;8825;48.086;16.426;2023-02-15T14:49:56;9.40;57.60
17415;DHT22;8825;48.086;16.426;2023-02-15T14:52:24;9.30;57.50
17415;DHT22;8825;48.086;16.426;2023-02-15T14:54:56;9.20;57.70
17415;DHT22;8825;48.086;16.426;2023-02-15T14:57:26;9.20;57.90
17415;DHT22;8825;48.086;16.426;2023-02-15T14:59:56;9.10;58.00
17415;DHT22;8825;48.086;16.426;2023-02-15T15:07:57;9.10;58.20
17415;DHT22;8825;48.086;16.426;2023-02-15T15:10:40;9.10;58.20
17415;DHT22;8825;48.086;16.426;2023-02-15T15:18:55;9.00;58.40
17415;DHT22;8825;48.086;16.426;2023-02-15T15:49:41;8.30;59.40
17415;DHT22;8825;48.086;16.426;2023-02-15T15:52:15;8.30;59.60
17415;DHT22;8825;48.086;16.426;2023-02-15T15:54:40;8.20;59.70
17415;DHT22;8825;48.086;16.426;2023-02-15T15:59:52;8.10;60.10
17415;DHT22;8825;48.086;16.426;2023-02-15T16:02:20;8.10;60.40
17415;DHT22;8825;48.086;16.426;2023-02-15T16:04:50;8.00;60.40
17415;DHT22;8825;48.086;16.426;2023-02-15T16:07:20;8.00;60.60
17415;DHT22;8825;48.086;16.426;2023-02-15T16:09:56;8.00;60.80
17415;DHT22;8825;48.086;16.426;2023-02-15T16:12:26;7.90;61.00
17415;DHT22;8825;48.086;16.426;2023-02-15T16:14:55;7.80;61.10
17415;DHT22;8825;48.086;16.426;2023-02-15T16:17:30;7.80;61.30
17415;DHT22;8825;48.086;16.426;2023-02-15T16:19:58;7.70;61.50
17415;DHT22;8825;48.086;16.426;2023-02-15T16:22:26;7.70;61.70
17415;DHT22;8825;48.086;16.426;2023-02-15T16:27:50;7.60;62.10
17415;DHT22;8825;48.086;16.426;2023-02-15T16:35:57;7.30;62.80
17415;DHT22;8825;48.086;16.426;2023-02-15T16:41:29;7.20;63.30
17415;DHT22;8825;48.086;16.426;2023-02-15T16:43:59;7.10;63.40
17415;DHT22;8825;48.086;16.426;2023-02-15T16:49:02;7.10;63.80
17415;DHT22;8825;48.086;16.426;2023-02-15T16:51:32;7.00;63.90
17415;DHT22;8825;48.086;16.426;2023-02-15T16:54:14;7.00;64.10
17415;DHT22;8825;48.086;16.426;2023-02-15T16:56:33;6.90;64.20
17415;DHT22;8825;48.086;16.426;2023-02-15T16:59:02;6.90;64.30
17415;DHT22;8825;48.086;16.426;2023-02-15T17:01:31;6.80;64.30
17415;DHT22;8825;48.086;16.426;2023-02-15T17:06:56;6.70;64.60
17415;DHT22;8825;48.086;16.426;2023-02-15T17:09:22;6.70;64.70
17415;DHT22;8825;48.086;16.426;2023-02-15T17:11:48;6.60;64.80
17415;DHT22;8825;48.086;16.426;2023-02-15T17:14:21;6.50;64.90
17415;DHT22;8825;48.086;16.426;2023-02-15T17:17:02;6.50;65.00
17415;DHT22;8825;48.086;16.426;2023-02-15T17:19:30;6.50;65.00
17415;DHT22;8825;48.086;16.426;2023-02-15T17:22:05;6.40;65.10
17415;DHT22;8825;48.086;16.426;2023-02-15T17:24:38;6.40;65.30
17415;DHT22;8825;48.086;16.426;2023-02-15T17:27:15;6.30;65.40
17415;DHT22;8825;48.086;16.426;2023-02-15T17:29:55;6.30;65.50
17415;DHT22;8825;48.086;16.426;2023-02-15T17:32:25;6.20;65.50
17415;DHT22;8825;48.086;16.426;2023-02-15T17:34:57;6.20;65.60
17415;DHT22;8825;48.086;16.426;2023-02-15T17:37:29;6.10;65.60
17415;DHT22;8825;48.086;16.426;2023-02-15T17:39:57;6.00;65.70
17415;DHT22;8825;48.086;16.426;2023-02-15T17:42:25;6.00;65.80
17415;DHT22;8825;48.086;16.426;2023-02-15T17:44:53;6.00;65.80
17415;DHT22;8825;48.086;16.426;2023-02-15T17:47:40;5.90;66.50
17415;DHT22;8825;48.086;16.426;2023-02-15T17:50:16;5.80;65.30
17415;DHT22;8825;48.086;16.426;2023-02-15T17:52:38;5.80;65.60
17415;DHT22;8825;48.086;16.426;2023-02-15T17:58:25;5.60;65.20
17415;DHT22;8825;48.086;16.426;2023-02-15T18:00:57;5.50;64.90
17415;DHT22;8825;48.086;16.426;2023-02-15T18:06:36;5.30;65.00
17415;DHT22;8825;48.086;16.426;2023-02-15T18:09:23;5.30;65.30
17415;DHT22;8825;48.086;16.426;2023-02-15T18:12:34;5.20;65.40
17415;DHT22;8825;48.086;16.426;2023-02-15T18:15:06;5.10;65.50
17415;DHT22;8825;48.086;16.426;2023-02-15T18:17:37;5.00;65.60
17415;DHT22;8825;48.086;16.426;2023-02-15T18:20:10;4.90;65.90
17415;DHT22;8825;48.086;16.426;2023-02-15T18:22:36;4.90;66.00
17415;DHT22;8825;48.086;16.426;2023-02-15T18:25:23;4.80;66.10
17415;DHT22;8825;48.086;16.426;2023-02-15T18:27:51;4.80;66.00
17415;DHT22;8825;48.086;16.426;2023-02-15T18:30:22;4.80;66.60
17415;DHT22;8825;48.086;16.426;2023-02-15T18:32:53;4.70;66.90
17415;DHT22;8825;48.086;16.426;2023-02-15T18:35:25;4.70;67.10
17415;DHT22;8825;48.086;16.426;2023-02-15T18:37:53;4.60;67.20
17415;DHT22;8825;48.086;16.426;2023-02-15T18:40:24;4.60;67.30
17415;DHT22;8825;48.086;16.426;2023-02-15T18:42:51;4.60;67.50
17415;DHT22;8825;48.086;16.426;2023-02-15T18:45:28;4.60;67.60
17415;DHT22;8825;48.086;16.426;2023-02-15T18:47:53;4.50;68.50
17415;DHT22;8825;48.086;16.426;2023-02-15T18:50:21;4.50;67.80
17415;DHT22;8825;48.086;16.426;2023-02-15T18:52:50;4.40;67.80
17415;DHT22;8825;48.086;16.426;2023-02-15T18:55:23;4.40;67.80
17415;DHT22;8825;48.086;16.426;2023-02-15T19:00:39;4.30;67.80
17415;DHT22;8825;48.086;16.426;2023-02-15T19:03:15;4.30;67.90
17415;DHT22;8825;48.086;16.426;2023-02-15T19:05:41;4.20;67.70
17415;DHT22;8825;48.086;16.426;2023-02-15T19:08:32;4.20;67.70
17415;DHT22;8825;48.086;16.426;2023-02-15T19:10:39;4.10;68.20
17415;DHT22;8825;48.086;16.426;2023-02-15T19:13:11;4.10;67.80
17415;DHT22;8825;48.086;16.426;2023-02-15T19:15:39;4.10;67.70
17415;DHT22;8825;48.086;16.426;2023-02-15T19:18:07;4.00;67.70
17415;DHT22;8825;48.086;16.426;2023-02-15T19:20:43;3.90;67.60
17415;DHT22;8825;48.086;16.426;2023-02-15T19:23:16;3.90;67.60
17415;DHT22;8825;48.086;16.426;2023-02-15T19:25:44;3.90;67.60
17415;DHT22;8825;48.086;16.426;2023-02-15T19:28:25;3.80;67.70
17415;DHT22;8825;48.086;16.426;2023-02-15T19:30:51;3.70;67.60
17415;DHT22;8825;48.086;16.426;2023-02-15T19:33:19;3.60;67.70
17415;DHT22;8825;48.086;16.426;2023-02-15T19:35:51;3.60;67.90
17415;DHT22;8825;48.086;16.426;2023-02-15T19:38:25;3.60;68.10
17415;DHT22;8825;48.086;16.426;2023-02-15T19:40:55;3.50;68.20
17415;DHT22;8825;48.086;16.426;2023-02-15T19:43:23;3.50;68.30
17415;DHT22;8825;48.086;16.426;2023-02-15T19:45:52;3.40;68.50